Time;durP1;ratioP1;P1;durP2;ratioP2;P2;SDS_P1;SDS_P2;PMS_P1;PMS_P2;Temp;Humidity;BMP_temperature;BMP_pressure;BME280_temperature;BME280_humidity;BME280_pressure;Samples;Min_cycle;Max_cycle;Signal;HPM_P1;HPM_P2
2021/12/23 00:02:00;;;;;;;41.93;19.97;;;-1.80;99.90;;;;;;4986500;28;20189;-50
2021/12/23 00:04:25;;;;;;;32.97;19.57;;;-1.80;99.90;;;;;;4989395;28;20237;-49
2021/12/23 00:06:51;;;;;;;31.30;18.70;;;-1.60;99.90;;;;;;4990353;28;20648;-47
2021/12/23 00:09:17;;;;;;;30.90;17.43;;;-1.70;99.90;;;;;;4987895;28;20422;-46
2021/12/23 00:11:42;;;;;;;37.07;19.27;;;-1.80;99.90;;;;;;4970367;28;20296;-49
2021/12/23 00:14:10;;;;;;;35.23;18.40;;;-1.70;99.90;;;;;;4987487;28;20194;-49
2021/12/23 00:16:55;;;;;;;34.20;19.10;;;-1.90;99.90;;;;;;4986406;28;20201;-50
2021/12/23 00:24:32;;;;;;;34.37;18.40;;;-1.80;99.90;;;;;;4984320;28;20480;-49
2021/12/23 00:26:58;;;;;;;38.43;17.80;;;-1.90;99.90;;;;;;4988564;28;20926;-47
2021/12/23 00:29:24;;;;;;;29.83;19.10;;;-1.70;99.90;;;;;;4990264;28;20524;-49
2021/12/23 00:31:49;;;;;;;37.00;20.10;;;-1.60;99.90;;;;;;4986327;28;20205;-49
2021/12/23 00:34:15;;;;;;;35.83;19.43;;;-1.80;99.90;;;;;;4987585;28;20480;-49
2021/12/23 00:36:44;;;;;;;33.67;18.60;;;-1.90;99.90;;;;;;4989631;28;20419;-47
2021/12/23 00:39:10;;;;;;;33.63;17.90;;;-2.00;99.90;;;;;;4988127;28;20293;-50
2021/12/23 00:41:36;;;;;;;33.87;17.33;;;-1.90;99.90;;;;;;4988689;28;20936;-48
2021/12/23 00:44:02;;;;;;;41.07;19.57;;;-1.90;99.90;;;;;;4983871;28;20961;-47
2021/12/23 00:46:28;;;;;;;36.07;18.23;;;-1.90;99.90;;;;;;4991767;28;20568;-50
2021/12/23 00:48:53;;;;;;;29.53;16.70;;;-1.90;99.90;;;;;;4986386;28;20233;-50
2021/12/23 00:51:20;;;;;;;34.47;18.10;;;-2.00;99.90;;;;;;4987994;28;20302;-47
2021/12/23 00:53:49;;;;;;;31.40;17.40;;;-1.70;99.90;;;;;;4988496;28;20182;-50
2021/12/23 00:56:14;;;;;;;32.83;19.33;;;-1.90;99.90;;;;;;4986931;28;20813;-47
2021/12/23 00:58:40;;;;;;;31.57;18.43;;;-1.80;99.90;;;;;;4986636;28;20438;-46
2021/12/23 01:01:07;;;;;;;28.20;18.53;;;-1.70;99.90;;;;;;4988387;28;20183;-52
2021/12/23 01:03:33;;;;;;;42.60;21.17;;;-2.00;99.90;;;;;;4983165;28;20873;-47
2021/12/23 01:05:59;;;;;;;37.00;19.67;;;-2.30;99.90;;;;;;4985769;28;20472;-49
2021/12/23 01:08:24;;;;;;;33.27;19.10;;;-2.00;99.90;;;;;;4984599;28;20836;-51
2021/12/23 01:10:55;;;;;;;34.90;19.63;;;-1.80;99.90;;;;;;4988689;28;20473;-49
2021/12/23 01:13:25;;;;;;;36.97;20.00;;;-1.50;99.90;;;;;;4986749;28;20765;-51
2021/12/23 01:16:03;;;;;;;33.50;18.70;;;-1.40;99.90;;;;;;4986782;28;20462;-49
2021/12/23 01:18:32;;;;;;;29.30;18.17;;;-1.50;99.90;;;;;;4986763;28;20435;-47
2021/12/23 01:21:17;;;;;;;34.00;18.40;;;-1.40;99.90;;;;;;4966126;28;20444;-49
2021/12/23 01:23:52;;;;;;;40.33;20.60;;;-1.10;99.90;;;;;;4989320;28;20433;-52
2021/12/23 01:26:21;;;;;;;37.17;20.43;;;-1.30;99.90;;;;;;4983615;28;20468;-48
2021/12/23 01:28:50;;;;;;;29.63;19.37;;;-1.30;99.90;;;;;;4987102;28;20857;-47
2021/12/23 01:31:16;;;;;;;30.80;17.90;;;-1.00;99.90;;;;;;4988037;28;20469;-48
2021/12/23 01:33:42;;;;;;;38.40;18.40;;;-0.90;99.90;;;;;;4984516;28;20452;-47
2021/12/23 01:36:08;;;;;;;32.47;18.50;;;-1.00;99.90;;;;;;4986135;28;20456;-49
2021/12/23 01:38:33;;;;;;;42.87;21.60;;;-1.10;99.90;;;;;;4985367;28;20194;-50
2021/12/23 01:41:00;;;;;;;41.50;21.07;;;-1.20;99.90;;;;;;4986783;28;20827;-49
2021/12/23 01:43:25;;;;;;;36.27;20.33;;;-1.10;99.90;;;;;;4987632;28;20186;-49
2021/12/23 01:45:51;;;;;;;30.37;18.70;;;-1.10;99.90;;;;;;4984557;28;20970;-49
2021/12/23 01:48:18;;;;;;;34.77;18.07;;;-1.00;99.90;;;;;;4984939;28;20809;-47
2021/12/23 01:50:45;;;;;;;31.00;19.10;;;-1.10;99.90;;;;;;4985987;28;20211;-50
2021/12/23 01:53:10;;;;;;;40.87;20.33;;;-0.90;99.90;;;;;;4985737;28;20441;-50
2021/12/23 01:55:38;;;;;;;39.40;19.30;;;-0.70;99.90;;;;;;4989566;28;20520;-49
2021/12/23 01:58:07;;;;;;;39.80;19.73;;;-0.70;99.90;;;;;;4983739;28;20272;-49
2021/12/23 02:00:35;;;;;;;42.20;21.87;;;-1.10;99.90;;;;;;4984060;28;20433;-48
2021/12/23 02:03:02;;;;;;;36.40;21.17;;;-1.30;99.90;;;;;;4986283;28;20496;-48
2021/12/23 02:05:30;;;;;;;46.70;23.00;;;-1.10;99.90;;;;;;4984955;28;20488;-49
2021/12/23 02:07:56;;;;;;;46.77;22.87;;;-1.20;99.90;;;;;;4986452;28;20433;-53
2021/12/23 02:10:22;;;;;;;58.03;27.27;;;-1.00;99.90;;;;;;4988546;28;20556;-50
2021/12/23 02:12:49;;;;;;;55.30;25.37;;;-0.90;99.90;;;;;;4986022;28;20563;-50
2021/12/23 02:15:17;;;;;;;37.67;21.17;;;-0.80;99.90;;;;;;4988611;28;20476;-50
2021/12/23 02:17:43;;;;;;;36.00;19.20;;;-0.70;99.90;;;;;;4987640;28;20504;-48
2021/12/23 02:20:15;;;;;;;37.67;17.87;;;-0.70;99.90;;;;;;4989430;28;20441;-49
2021/12/23 02:22:42;;;;;;;36.33;18.73;;;-0.80;99.90;;;;;;4987870;28;20451;-49
2021/12/23 02:25:09;;;;;;;33.70;19.63;;;-0.80;99.90;;;;;;4986233;28;20985;-47
2021/12/23 02:27:35;;;;;;;38.50;19.73;;;-0.70;99.90;;;;;;4988234;28;20432;-46
2021/12/23 02:30:04;;;;;;;31.00;16.50;;;-0.80;99.90;;;;;;4983832;28;20472;-48
2021/12/23 02:32:30;;;;;;;31.80;18.17;;;-0.70;99.90;;;;;;4991533;28;20185;-49
2021/12/23 02:34:55;;;;;;;28.53;18.00;;;-0.60;99.90;;;;;;4983971;28;20951;-50
2021/12/23 02:37:21;;;;;;;31.07;17.90;;;-0.70;99.90;;;;;;4984719;28;20847;-50
2021/12/23 02:39:47;;;;;;;32.40;18.20;;;-0.50;99.90;;;;;;4988206;28;20185;-51
2021/12/23 02:42:13;;;;;;;33.80;17.40;;;-0.40;99.90;;;;;;4984998;28;20186;-48
2021/12/23 02:44:39;;;;;;;30.97;17.33;;;-0.50;99.90;;;;;;4986415;28;20461;-47
2021/12/23 02:47:05;;;;;;;31.67;17.87;;;-0.50;99.90;;;;;;4984880;28;20512;-51
2021/12/23 02:49:32;;;;;;;27.77;17.07;;;-0.50;99.90;;;;;;4984806;28;20561;-49
2021/12/23 02:51:57;;;;;;;34.70;18.03;;;-0.40;99.90;;;;;;4984245;28;21057;-50
2021/12/23 02:54:23;;;;;;;34.47;17.20;;;-0.60;99.90;;;;;;4984086;28;20452;-49
2021/12/23 02:56:49;;;;;;;36.80;20.07;;;-0.50;99.90;;;;;;4986785;28;20645;-48
2021/12/23 02:59:14;;;;;;;39.13;18.60;;;-0.70;99.90;;;;;;4988603;28;20182;-49
2021/12/23 03:01:40;;;;;;;30.17;19.27;;;-0.70;99.90;;;;;;4986560;28;20249;-49
2021/12/23 03:04:06;;;;;;;36.70;19.10;;;-0.80;99.90;;;;;;4989132;28;20586;-49
2021/12/23 03:06:32;;;;;;;39.10;21.40;;;-0.80;99.90;;;;;;4984097;28;20195;-48
2021/12/23 03:09:00;;;;;;;34.83;17.40;;;-0.60;99.90;;;;;;4987598;28;20198;-48
2021/12/23 03:11:28;;;;;;;28.33;17.97;;;-0.70;99.90;;;;;;4992085;28;20582;-47
2021/12/23 03:13:55;;;;;;;33.63;20.30;;;-0.80;99.90;;;;;;4980837;28;20477;-48
2021/12/23 03:16:28;;;;;;;35.43;18.97;;;-0.80;99.90;;;;;;4983792;28;20458;-48
2021/12/23 03:18:53;;;;;;;34.57;18.80;;;-0.80;99.90;;;;;;4985573;28;21106;-49
2021/12/23 03:21:20;;;;;;;29.60;17.60;;;-0.90;99.90;;;;;;4988025;28;20523;-48
2021/12/23 03:23:45;;;;;;;25.53;17.37;;;-1.00;99.90;;;;;;4986857;28;20185;-48
2021/12/23 03:26:11;;;;;;;31.33;18.00;;;-0.70;99.90;;;;;;4986344;28;20956;-50
2021/12/23 03:28:38;;;;;;;33.97;18.63;;;-0.60;99.90;;;;;;4985357;28;20450;-49
2021/12/23 03:31:04;;;;;;;31.70;17.00;;;-0.60;99.90;;;;;;4985011;28;20903;-48
2021/12/23 03:33:30;;;;;;;30.17;17.13;;;-0.70;99.90;;;;;;4985855;28;20512;-48
2021/12/23 03:35:55;;;;;;;27.40;16.93;;;-0.40;99.90;;;;;;4984893;28;20534;-48
2021/12/23 03:38:23;;;;;;;30.30;17.77;;;-0.50;99.90;;;;;;4988627;28;20213;-47
2021/12/23 03:40:49;;;;;;;31.70;16.93;;;-0.30;99.90;;;;;;4984593;28;20207;-47
2021/12/23 03:43:16;;;;;;;30.00;17.97;;;-0.20;99.90;;;;;;4987972;28;20812;-48
2021/12/23 03:45:43;;;;;;;34.93;17.90;;;-0.40;99.90;;;;;;4980523;28;20767;-48
2021/12/23 03:48:10;;;;;;;30.50;18.53;;;-0.70;99.90;;;;;;4983618;28;20552;-50
2021/12/23 03:50:36;;;;;;;29.33;17.87;;;-0.40;99.90;;;;;;4982010;28;20500;-48
2021/12/23 03:53:02;;;;;;;30.83;18.30;;;-0.30;99.90;;;;;;4965746;28;20917;-46
2021/12/23 03:55:28;;;;;;;27.13;16.07;;;-0.30;99.90;;;;;;4980526;28;20202;-50
2021/12/23 03:57:53;;;;;;;32.60;17.63;;;-0.40;99.90;;;;;;4984313;28;20436;-50
2021/12/23 04:00:21;;;;;;;30.37;18.27;;;-0.40;99.90;;;;;;4981004;28;20292;-47
2021/12/23 04:02:47;;;;;;;33.10;19.07;;;-0.70;99.90;;;;;;4981857;28;20301;-48
2021/12/23 04:05:13;;;;;;;31.80;17.37;;;-0.50;99.90;;;;;;4983861;28;20466;-48
2021/12/23 04:07:39;;;;;;;28.80;16.73;;;-0.40;99.90;;;;;;4983079;28;22222;-48
2021/12/23 04:10:08;;;;;;;27.13;15.47;;;-0.60;99.90;;;;;;4982325;28;20484;-50
2021/12/23 04:12:33;;;;;;;30.33;18.03;;;-0.50;99.90;;;;;;4982070;28;20188;-47
2021/12/23 04:14:59;;;;;;;27.50;17.17;;;-0.40;99.90;;;;;;4983284;28;20963;-47
2021/12/23 04:17:25;;;;;;;32.27;16.67;;;-0.30;99.90;;;;;;4980825;28;20188;-50
2021/12/23 04:19:51;;;;;;;25.80;15.67;;;-0.70;99.90;;;;;;4979910;28;20205;-49
2021/12/23 04:22:16;;;;;;;27.67;15.90;;;-0.70;99.90;;;;;;4983560;28;20250;-51
2021/12/23 04:24:42;;;;;;;27.47;15.50;;;-0.60;99.90;;;;;;4986056;28;20780;-49
2021/12/23 04:27:09;;;;;;;26.17;15.00;;;-0.40;99.90;;;;;;4986620;28;20191;-51
2021/12/23 04:29:34;;;;;;;31.43;17.13;;;-0.30;99.90;;;;;;4966884;28;20464;-49
2021/12/23 04:32:01;;;;;;;30.50;17.40;;;-0.50;99.90;;;;;;4986562;28;20992;-49
2021/12/23 04:34:27;;;;;;;32.60;17.20;;;-0.50;99.90;;;;;;4986769;28;20203;-51
2021/12/23 04:36:53;;;;;;;26.50;15.97;;;-0.60;99.90;;;;;;4985227;28;20856;-48
2021/12/23 04:39:19;;;;;;;28.43;17.17;;;-0.50;99.90;;;;;;4985034;28;20426;-46
2021/12/23 04:41:45;;;;;;;41.57;18.97;;;-0.60;99.90;;;;;;4983470;28;20513;-46
2021/12/23 04:44:11;;;;;;;33.17;18.67;;;-0.50;99.90;;;;;;4986502;28;20460;-46
2021/12/23 04:46:37;;;;;;;27.47;16.50;;;-0.70;99.90;;;;;;4985362;28;20470;-46
2021/12/23 04:49:02;;;;;;;30.20;17.20;;;-0.50;99.90;;;;;;4980852;28;20441;-52
2021/12/23 04:51:28;;;;;;;27.23;16.93;;;-0.40;99.90;;;;;;4989049;28;20217;-46
2021/12/23 04:53:53;;;;;;;34.37;17.70;;;-0.40;99.90;;;;;;4987927;28;20196;-48
2021/12/23 04:56:19;;;;;;;34.33;19.10;;;-0.50;99.90;;;;;;4992245;28;20209;-48
2021/12/23 04:58:45;;;;;;;33.47;18.60;;;-0.50;99.90;;;;;;4986580;28;20195;-47
2021/12/23 05:01:27;;;;;;;30.20;17.00;;;-0.50;99.90;;;;;;4985502;28;20198;-50
2021/12/23 05:03:53;;;;;;;30.10;18.20;;;-0.30;99.90;;;;;;4989599;28;20193;-50
2021/12/23 05:06:19;;;;;;;34.53;17.70;;;-0.20;99.90;;;;;;4968099;28;20963;-48
2021/12/23 05:08:45;;;;;;;29.60;17.60;;;-0.60;99.90;;;;;;4986473;28;20605;-50
2021/12/23 05:11:10;;;;;;;32.97;18.00;;;-0.50;99.90;;;;;;4990130;28;20236;-52
2021/12/23 05:13:36;;;;;;;33.53;18.47;;;-0.50;99.90;;;;;;4987502;28;20433;-47
2021/12/23 05:16:02;;;;;;;41.50;19.23;;;-0.80;99.90;;;;;;4986780;28;20210;-47
2021/12/23 05:18:28;;;;;;;29.90;17.33;;;-0.50;99.90;;;;;;4985986;28;20186;-46
2021/12/23 05:20:53;;;;;;;31.77;17.03;;;-0.60;99.90;;;;;;4987695;28;20752;-46
2021/12/23 05:23:19;;;;;;;31.27;18.70;;;-0.60;99.90;;;;;;4988218;28;20276;-47
2021/12/23 05:25:45;;;;;;;34.83;18.13;;;-0.50;99.90;;;;;;4983743;28;20916;-46
2021/12/23 05:28:11;;;;;;;33.43;17.87;;;-0.30;99.90;;;;;;4989842;28;20200;-50
2021/12/23 05:30:37;;;;;;;32.10;17.77;;;-0.40;99.90;;;;;;4984717;28;20207;-47
2021/12/23 05:33:03;;;;;;;34.40;18.50;;;-0.60;99.90;;;;;;4987801;28;20451;-51
2021/12/23 05:35:29;;;;;;;32.20;18.10;;;-0.60;99.90;;;;;;4983964;28;20208;-50
2021/12/23 05:37:54;;;;;;;24.17;15.47;;;-0.50;99.90;;;;;;4970695;28;20291;-48
2021/12/23 05:40:23;;;;;;;32.33;17.80;;;-0.30;99.90;;;;;;4986178;28;20506;-49
2021/12/23 05:42:50;;;;;;;32.13;17.40;;;-0.20;99.90;;;;;;4985806;28;20446;-46
2021/12/23 05:45:15;;;;;;;33.13;17.43;;;-0.30;99.90;;;;;;4987111;28;20477;-50
2021/12/23 05:47:43;;;;;;;28.87;17.10;;;-0.40;99.90;;;;;;4987929;28;20841;-47
2021/12/23 05:50:10;;;;;;;30.60;17.93;;;-0.60;99.90;;;;;;4984752;28;20465;-46
2021/12/23 05:52:36;;;;;;;32.10;17.53;;;-0.60;99.90;;;;;;4985167;28;20925;-47
2021/12/23 05:55:04;;;;;;;29.33;18.10;;;-0.50;99.90;;;;;;4988154;28;20919;-48
2021/12/23 05:57:30;;;;;;;30.93;15.33;;;-0.20;99.90;;;;;;4985431;28;20449;-48
2021/12/23 05:59:56;;;;;;;28.57;16.43;;;-0.10;99.90;;;;;;4988983;28;20440;-47
2021/12/23 06:02:21;;;;;;;28.73;15.77;;;-0.10;99.90;;;;;;4986971;28;20477;-49
2021/12/23 06:04:47;;;;;;;27.83;15.83;;;-0.40;99.90;;;;;;4986836;28;20504;-47
2021/12/23 06:07:13;;;;;;;27.63;15.43;;;-0.50;99.90;;;;;;4987019;28;20193;-48
2021/12/23 06:09:38;;;;;;;29.67;15.50;;;-0.50;99.90;;;;;;4984030;28;20190;-47
2021/12/23 06:12:04;;;;;;;33.93;16.80;;;-0.60;99.90;;;;;;4965855;28;20476;-48
2021/12/23 06:14:30;;;;;;;29.70;17.30;;;-0.70;99.90;;;;;;4980984;28;20238;-52
2021/12/23 06:16:55;;;;;;;28.13;16.50;;;-0.70;99.90;;;;;;4983757;28;20898;-49
2021/12/23 06:19:21;;;;;;;26.07;16.03;;;-0.90;99.90;;;;;;4986682;28;20202;-47
2021/12/23 06:21:47;;;;;;;33.73;18.17;;;-1.00;99.90;;;;;;4984195;28;20196;-47
2021/12/23 06:24:12;;;;;;;26.00;16.73;;;-0.90;99.90;;;;;;4985476;28;20986;-48
2021/12/23 06:26:38;;;;;;;28.43;17.03;;;-1.00;99.90;;;;;;4985403;28;20228;-51
2021/12/23 06:29:04;;;;;;;32.80;17.00;;;-0.70;99.90;;;;;;4979378;28;20217;-47
2021/12/23 06:31:29;;;;;;;29.63;16.90;;;-0.60;99.90;;;;;;4985114;28;20553;-48
2021/12/23 06:33:55;;;;;;;28.53;16.50;;;-0.60;99.90;;;;;;4983601;28;20281;-48
2021/12/23 06:36:20;;;;;;;31.63;16.83;;;-0.50;99.90;;;;;;4989072;28;20202;-46
2021/12/23 06:38:46;;;;;;;24.57;15.30;;;-0.30;99.90;;;;;;4983398;28;20554;-46
2021/12/23 06:41:12;;;;;;;30.90;17.60;;;-0.50;99.90;;;;;;4986682;28;20714;-48
2021/12/23 06:43:38;;;;;;;38.93;18.97;;;-0.60;99.90;;;;;;4985364;28;20562;-53
2021/12/23 06:46:04;;;;;;;36.70;18.50;;;-0.60;99.90;;;;;;4984444;28;20529;-51
2021/12/23 06:48:31;;;;;;;30.70;16.07;;;-0.80;99.90;;;;;;4986922;28;20455;-51
2021/12/23 06:50:57;;;;;;;29.87;17.53;;;-0.70;99.90;;;;;;4984413;28;20230;-48
2021/12/23 06:53:23;;;;;;;34.43;17.80;;;-0.50;99.90;;;;;;4986993;28;20492;-52
2021/12/23 06:55:51;;;;;;;32.20;18.27;;;-0.50;99.90;;;;;;4985906;28;20470;-51
2021/12/23 06:58:18;;;;;;;32.20;16.03;;;-0.60;99.90;;;;;;4980613;28;20430;-49
2021/12/23 07:00:43;;;;;;;39.03;18.83;;;-0.50;99.90;;;;;;4983465;28;20846;-51
2021/12/23 07:03:09;;;;;;;32.00;17.33;;;-0.40;99.90;;;;;;4980749;28;20535;-49
2021/12/23 07:05:35;;;;;;;28.20;17.10;;;-0.30;99.90;;;;;;4966378;28;20215;-50
2021/12/23 07:08:43;;;;;;;28.70;17.07;;;-0.40;99.90;;;;;;4984108;28;20636;-52
2021/12/23 07:10:49;;;;;;;33.13;18.00;;;-0.50;99.90;;;;;;4980711;28;20324;-49
2021/12/23 07:13:15;;;;;;;36.00;19.17;;;-0.40;99.90;;;;;;4987498;28;20481;-52
2021/12/23 07:15:43;;;;;;;35.00;18.77;;;-0.30;99.90;;;;;;4982671;28;20213;-49
2021/12/23 07:18:09;;;;;;;36.43;20.17;;;-0.40;99.90;;;;;;4982280;28;20201;-52
2021/12/23 07:20:34;;;;;;;33.43;18.80;;;-0.20;99.90;;;;;;4984197;28;20433;-48
2021/12/23 07:23:00;;;;;;;33.87;18.03;;;-0.40;99.90;;;;;;4983427;28;20266;-50
2021/12/23 07:25:26;;;;;;;25.90;16.67;;;-0.50;99.90;;;;;;4984354;28;20218;-50
2021/12/23 07:27:52;;;;;;;31.63;17.23;;;-0.40;99.90;;;;;;4983924;28;20657;-52
2021/12/23 07:30:19;;;;;;;31.67;17.80;;;-0.40;99.90;;;;;;4986562;28;21367;-51
2021/12/23 07:32:46;;;;;;;31.80;17.60;;;-0.50;99.90;;;;;;4985565;28;20455;-47
2021/12/23 07:35:12;;;;;;;34.97;17.73;;;-0.30;99.90;;;;;;4982159;28;20458;-44
2021/12/23 07:37:38;;;;;;;33.83;19.07;;;-0.40;99.90;;;;;;4985270;28;20429;-48
2021/12/23 07:40:05;;;;;;;31.97;18.73;;;-0.40;99.90;;;;;;4987069;28;20964;-52
2021/12/23 07:42:32;;;;;;;29.83;17.00;;;-0.50;99.90;;;;;;4983728;28;20195;-48
2021/12/23 07:44:59;;;;;;;33.40;18.00;;;-0.70;99.90;;;;;;4974407;28;20461;-47
2021/12/23 07:47:24;;;;;;;34.17;16.33;;;-0.90;99.90;;;;;;4983377;28;21220;-51
2021/12/23 07:49:50;;;;;;;29.83;17.50;;;-0.50;99.90;;;;;;4985167;28;20888;-48
2021/12/23 07:52:16;;;;;;;32.87;17.27;;;-0.50;99.90;;;;;;4977371;28;20600;-50
2021/12/23 07:54:42;;;;;;;30.73;17.70;;;-0.50;99.90;;;;;;4980154;28;20679;-48
2021/12/23 07:57:07;;;;;;;35.17;18.30;;;-0.40;99.90;;;;;;4986385;28;20195;-48
2021/12/23 07:59:33;;;;;;;31.13;16.53;;;-0.50;99.90;;;;;;4988663;28;20191;-51
2021/12/23 08:01:59;;;;;;;35.67;16.43;;;-0.40;99.90;;;;;;4984804;28;20420;-46
2021/12/23 08:04:25;;;;;;;30.07;15.63;;;-0.40;99.90;;;;;;4986456;28;20549;-47
2021/12/23 08:06:55;;;;;;;25.97;16.00;;;-0.30;99.90;;;;;;4988565;28;20520;-47
2021/12/23 08:09:22;;;;;;;29.63;16.70;;;-0.30;99.90;;;;;;4987707;28;20441;-51
2021/12/23 08:11:48;;;;;;;34.90;17.13;;;-0.30;99.90;;;;;;4987851;28;20510;-50
2021/12/23 08:14:13;;;;;;;30.53;18.10;;;-0.50;99.90;;;;;;4991415;28;20522;-50
2021/12/23 08:16:39;;;;;;;30.63;16.50;;;-0.10;99.90;;;;;;4992101;28;20529;-47
2021/12/23 08:19:05;;;;;;;28.10;15.80;;;-0.10;99.90;;;;;;4986733;28;20186;-53
2021/12/23 08:21:30;;;;;;;42.30;16.73;;;-0.10;99.90;;;;;;4978147;28;20582;-48
2021/12/23 08:23:56;;;;;;;32.17;16.30;;;-0.10;99.90;;;;;;4980823;28;20284;-51
2021/12/23 08:26:27;;;;;;;28.00;16.07;;;-0.10;99.90;;;;;;4982783;28;20878;-52
2021/12/23 08:28:56;;;;;;;26.37;16.17;;;-0.10;99.90;;;;;;4973554;28;20626;-50
2021/12/23 08:31:23;;;;;;;32.57;16.40;;;0.10;99.90;;;;;;4978459;28;20466;-50
2021/12/23 08:33:49;;;;;;;30.70;17.03;;;0.20;99.90;;;;;;4983459;28;20499;-49
2021/12/23 08:36:14;;;;;;;33.13;17.53;;;-0.10;99.90;;;;;;4985037;28;20791;-49
2021/12/23 08:38:41;;;;;;;35.70;16.60;;;0.00;99.90;;;;;;4987017;28;20923;-46
2021/12/23 08:41:07;;;;;;;34.93;17.20;;;0.30;99.90;;;;;;4988330;28;20198;-49
2021/12/23 08:43:33;;;;;;;29.57;16.70;;;0.10;99.90;;;;;;4986351;28;20440;-47
2021/12/23 08:45:59;;;;;;;28.40;16.43;;;0.30;99.90;;;;;;4987318;28;20480;-51
2021/12/23 08:48:25;;;;;;;28.17;15.23;;;0.10;99.90;;;;;;4985014;28;20187;-49
2021/12/23 08:50:51;;;;;;;30.70;16.43;;;0.10;99.90;;;;;;4985325;28;20472;-46
2021/12/23 08:53:17;;;;;;;24.70;14.83;;;0.20;99.90;;;;;;4985470;28;20309;-48
2021/12/23 08:55:43;;;;;;;30.20;16.90;;;0.40;99.90;;;;;;4985556;28;20544;-51
2021/12/23 08:58:09;;;;;;;29.20;16.80;;;0.30;99.90;;;;;;4984707;28;20193;-48
2021/12/23 09:00:36;;;;;;;25.70;15.77;;;0.40;99.90;;;;;;4982962;28;20447;-47
2021/12/23 09:03:05;;;;;;;29.77;16.20;;;0.40;99.90;;;;;;4984542;28;20524;-49
2021/12/23 09:05:35;;;;;;;28.57;16.03;;;0.40;99.90;;;;;;4988635;28;20462;-47
2021/12/23 09:08:00;;;;;;;28.60;16.87;;;0.30;99.90;;;;;;4984509;28;20780;-51
2021/12/23 09:10:26;;;;;;;25.80;17.20;;;0.30;99.90;;;;;;4983636;28;20545;-48
2021/12/23 09:12:52;;;;;;;30.50;15.70;;;0.10;99.90;;;;;;4985138;28;20669;-51
2021/12/23 09:15:19;;;;;;;32.17;17.30;;;0.10;99.90;;;;;;4983726;28;20453;-47
2021/12/23 09:17:46;;;;;;;28.93;16.00;;;0.10;99.90;;;;;;4985665;28;20279;-49
2021/12/23 09:20:14;;;;;;;33.77;17.03;;;0.00;99.90;;;;;;4983542;28;20877;-51
2021/12/23 09:22:40;;;;;;;39.13;18.10;;;0.10;99.90;;;;;;4986935;28;20465;-50
2021/12/23 09:25:11;;;;;;;32.20;17.03;;;0.30;99.90;;;;;;4988374;28;20581;-48
2021/12/23 09:27:55;;;;;;;31.70;16.03;;;0.30;99.90;;;;;;4983013;28;20918;-48
2021/12/23 09:33:06;;;;;;;30.10;17.70;;;0.40;99.90;;;;;;4982765;28;21035;-51
2021/12/23 09:35:32;;;;;;;34.23;17.47;;;0.30;99.90;;;;;;4978653;28;20900;-49
2021/12/23 09:38:00;;;;;;;36.03;16.70;;;0.30;99.90;;;;;;4977368;28;20470;-52
2021/12/23 09:40:29;;;;;;;29.33;16.30;;;0.00;99.90;;;;;;4969357;28;20975;-52
2021/12/23 09:42:57;;;;;;;31.53;17.83;;;0.10;99.90;;;;;;4986826;28;20466;-50
2021/12/23 09:45:23;;;;;;;35.37;19.37;;;0.20;99.90;;;;;;4987321;28;20468;-50
2021/12/23 09:47:49;;;;;;;36.10;18.90;;;0.20;99.90;;;;;;4981593;28;20988;-50
2021/12/23 09:50:22;;;;;;;34.00;18.57;;;0.10;99.90;;;;;;4984668;28;20449;-50
2021/12/23 09:52:51;;;;;;;33.97;18.33;;;0.10;99.90;;;;;;4984315;28;20444;-47
2021/12/23 09:55:28;;;;;;;34.60;17.50;;;0.20;99.90;;;;;;4984085;28;20498;-49
2021/12/23 09:57:58;;;;;;;33.17;19.97;;;0.20;99.90;;;;;;4978268;28;20759;-47
2021/12/23 10:00:27;;;;;;;37.40;20.40;;;0.10;99.90;;;;;;4983122;28;20511;-49
2021/12/23 10:02:53;;;;;;;37.13;20.20;;;0.10;99.90;;;;;;4980996;28;20439;-50
2021/12/23 10:05:28;;;;;;;38.20;18.83;;;0.10;99.90;;;;;;4982981;28;20462;-50
2021/12/23 10:07:55;;;;;;;37.33;19.60;;;0.00;99.90;;;;;;4983937;28;20437;-49
2021/12/23 10:10:29;;;;;;;34.10;19.10;;;0.00;99.90;;;;;;4979319;28;20440;-48
2021/12/23 10:27:40;;;;;;;40.70;21.43;;;0.60;99.90;;;;;;4988841;28;20448;-50
2021/12/23 10:32:48;;;;;;;47.07;22.47;;;0.50;99.90;;;;;;4981744;28;20480;-51
2021/12/23 10:38:10;;;;;;;49.07;22.57;;;0.70;99.90;;;;;;4983362;28;20430;-51
2021/12/23 10:40:39;;;;;;;38.57;21.10;;;0.60;99.90;;;;;;4984264;28;20834;-52
2021/12/23 10:43:08;;;;;;;39.07;20.00;;;0.50;99.90;;;;;;4986956;28;20468;-49
2021/12/23 10:45:41;;;;;;;39.63;20.33;;;0.50;99.90;;;;;;4983397;28;20509;-51
2021/12/23 10:48:10;;;;;;;36.33;20.33;;;0.50;99.90;;;;;;4983923;28;20442;-49
2021/12/23 10:50:46;;;;;;;49.83;22.30;;;0.60;99.90;;;;;;4984163;28;20478;-49
2021/12/23 10:53:54;;;;;;;36.83;21.77;;;0.50;99.90;;;;;;4985599;28;20560;-51
2021/12/23 10:59:15;;;;;;;41.30;21.70;;;0.60;99.90;;;;;;4982952;28;20446;-47
2021/12/23 11:02:06;;;;;;;39.27;22.50;;;0.70;99.90;;;;;;4982985;28;20493;-53
2021/12/23 11:04:47;;;;;;;41.03;23.20;;;0.90;99.90;;;;;;4981611;28;20805;-51
2021/12/23 11:07:26;;;;;;;36.50;21.90;;;1.10;99.90;;;;;;4983195;28;20453;-50
2021/12/23 11:10:16;;;;;;;40.13;20.53;;;1.00;99.90;;;;;;4978502;28;20897;-50
2021/12/23 11:37:42;;;;;;;46.40;23.57;;;1.50;99.90;;;;;;4953562;28;20940;-48
2021/12/23 11:40:23;;;;;;;41.93;22.57;;;1.50;99.90;;;;;;4987256;28;20471;-51
2021/12/23 11:45:39;;;;;;;40.27;24.03;;;1.80;99.90;;;;;;4958108;28;20502;-50
2021/12/23 11:48:07;;;;;;;41.27;21.83;;;1.80;99.90;;;;;;4969956;28;20440;-49
2021/12/23 11:50:41;;;;;;;39.77;23.47;;;1.80;99.90;;;;;;4986867;28;20544;-48
2021/12/23 11:53:08;;;;;;;38.03;19.80;;;1.80;99.90;;;;;;4987063;28;20509;-48
2021/12/23 11:55:35;;;;;;;38.60;21.27;;;1.90;99.90;;;;;;4985966;28;20462;-49
2021/12/23 11:58:02;;;;;;;43.67;22.20;;;1.80;99.90;;;;;;4990661;28;20428;-49
2021/12/23 12:00:42;;;;;;;43.13;22.17;;;1.90;99.90;;;;;;4986462;28;20925;-48
2021/12/23 12:03:09;;;;;;;43.03;24.30;;;1.90;99.90;;;;;;4986923;28;20547;-48
2021/12/23 12:05:36;;;;;;;41.30;24.57;;;2.00;99.90;;;;;;4987762;28;20461;-48
2021/12/23 12:08:15;;;;;;;44.13;24.03;;;2.00;99.90;;;;;;4988647;28;20485;-47
2021/12/23 12:10:42;;;;;;;46.70;24.90;;;2.00;99.90;;;;;;4988101;28;20470;-48
2021/12/23 12:13:11;;;;;;;46.87;22.43;;;2.20;99.90;;;;;;4984971;28;20440;-48
2021/12/23 12:15:41;;;;;;;39.33;23.70;;;2.20;99.90;;;;;;4985068;28;20475;-52
2021/12/23 12:18:13;;;;;;;42.50;22.63;;;2.20;99.90;;;;;;4986291;28;21020;-49
2021/12/23 12:20:47;;;;;;;46.90;24.70;;;2.30;99.90;;;;;;4986932;28;20861;-46
2021/12/23 12:23:36;;;;;;;42.60;22.90;;;2.30;99.90;;;;;;4988716;28;20435;-51
2021/12/23 12:26:10;;;;;;;43.60;23.27;;;2.30;99.90;;;;;;4984203;28;20832;-52
2021/12/23 12:28:43;;;;;;;42.33;23.07;;;2.40;99.90;;;;;;4984669;28;20663;-53
2021/12/23 12:31:13;;;;;;;36.50;22.23;;;2.50;99.90;;;;;;4988017;28;20477;-53
2021/12/23 12:33:41;;;;;;;51.60;26.30;;;2.50;99.90;;;;;;4987599;28;20499;-49
2021/12/23 12:36:11;;;;;;;58.80;26.20;;;2.40;99.90;;;;;;4988023;28;21097;-51
2021/12/23 12:38:47;;;;;;;47.20;27.23;;;2.50;99.90;;;;;;4987084;28;20817;-49
2021/12/23 12:41:39;;;;;;;48.67;25.43;;;2.60;99.90;;;;;;4987628;28;20450;-49
2021/12/23 12:47:00;;;;;;;46.53;23.30;;;2.70;99.90;;;;;;4984067;28;20957;-51
2021/12/23 12:49:30;;;;;;;39.10;24.47;;;2.80;99.90;;;;;;4987550;28;20436;-48
2021/12/23 12:52:20;;;;;;;41.00;24.47;;;2.90;99.90;;;;;;4981474;28;20495;-49
2021/12/23 12:54:51;;;;;;;43.87;24.60;;;2.90;99.90;;;;;;4973953;28;20466;-50
2021/12/23 12:57:19;;;;;;;42.37;22.97;;;3.00;99.90;;;;;;4982276;28;20543;-50
2021/12/23 12:59:48;;;;;;;39.00;23.30;;;3.10;99.90;;;;;;4979709;28;20432;-50
2021/12/23 13:02:21;;;;;;;40.50;23.87;;;3.10;99.90;;;;;;4980068;28;20432;-50
2021/12/23 13:04:57;;;;;;;46.30;25.97;;;3.20;99.90;;;;;;4980141;28;20464;-51
2021/12/23 13:07:25;;;;;;;41.70;24.83;;;3.10;99.90;;;;;;4983102;28;20547;-50
2021/12/23 13:09:58;;;;;;;44.00;26.93;;;3.20;99.90;;;;;;4980995;28;20520;-55
2021/12/23 13:12:44;;;;;;;48.53;23.43;;;3.20;99.90;;;;;;4979639;28;20458;-50
2021/12/23 13:15:16;;;;;;;47.43;24.43;;;3.20;99.90;;;;;;4983642;28;20449;-48
2021/12/23 13:18:05;;;;;;;40.30;21.47;;;3.30;99.90;;;;;;4980929;28;20971;-50
2021/12/23 13:20:37;;;;;;;39.30;22.63;;;3.30;99.90;;;;;;4978666;28;20856;-48
2021/12/23 13:23:15;;;;;;;40.27;22.80;;;3.40;99.90;;;;;;4981004;28;20939;-51
2021/12/23 13:26:00;;;;;;;43.60;23.77;;;3.40;99.90;;;;;;4977765;28;20497;-49
2021/12/23 13:28:35;;;;;;;44.00;25.87;;;3.40;99.90;;;;;;4980470;28;20448;-47
2021/12/23 13:31:02;;;;;;;51.33;25.37;;;3.50;99.90;;;;;;4980786;28;20539;-49
2021/12/23 13:33:29;;;;;;;44.07;24.23;;;3.50;99.90;;;;;;4978967;28;20440;-53
2021/12/23 13:35:55;;;;;;;46.40;25.37;;;3.40;99.90;;;;;;4980887;28;20450;-50
2021/12/23 13:38:31;;;;;;;46.97;24.37;;;3.60;99.90;;;;;;4981781;28;20520;-50